createdAt,value
2022-10-30T06:05:08.314Z,8.77
2022-10-30T06:07:35.359Z,10.35
2022-10-30T06:10:02.133Z,11.15
2022-10-30T06:12:43.391Z,8.35
2022-10-30T06:15:20.726Z,7.40
2022-10-30T06:17:47.613Z,7.45
2022-10-30T06:20:20.280Z,7.40
2022-10-30T06:23:02.615Z,7.10
2022-10-30T06:25:48.361Z,7.22
2022-10-30T06:28:21.341Z,6.30
2022-10-30T06:30:48.861Z,6.43
2022-10-30T06:33:15.395Z,7.57
2022-10-30T06:35:49.689Z,7.18
2022-10-30T06:38:17.654Z,6.82
2022-10-30T06:40:45.384Z,8.52
2022-10-30T06:43:38.121Z,7.45
2022-10-30T06:46:10.767Z,7.35
2022-10-30T06:48:40.567Z,7.72
2022-10-30T06:51:07.879Z,8.38
2022-10-30T06:53:37.873Z,7.43
2022-10-30T06:56:23.815Z,6.70
2022-10-30T06:59:16.640Z,7.40
2022-10-30T07:01:55.764Z,6.80
2022-10-30T07:04:26.508Z,7.53
2022-10-30T07:06:56.386Z,7.18
2022-10-30T07:09:23.372Z,6.30
2022-10-30T07:11:54.499Z,6.40
2022-10-30T07:14:45.774Z,7.00
2022-10-30T07:17:56.198Z,6.45
2022-10-30T07:20:25.511Z,8.07
2022-10-30T07:22:52.149Z,7.22
2022-10-30T07:25:19.661Z,7.53
2022-10-30T07:28:03.911Z,7.68
2022-10-30T07:30:38.251Z,6.40
2022-10-30T07:33:37.840Z,7.90
2022-10-30T07:36:20.963Z,7.95
2022-10-30T07:39:13.801Z,7.95
2022-10-30T07:41:54.252Z,7.35
2022-10-30T07:44:39.823Z,7.68
2022-10-30T07:47:26.259Z,7.45
2022-10-30T07:52:23.094Z,7.43
2022-10-30T07:54:52.080Z,7.13
2022-10-30T07:57:39.119Z,7.53
2022-10-30T08:00:25.028Z,7.70
2022-10-30T08:03:02.252Z,7.32
2022-10-30T08:05:37.736Z,6.88
2022-10-30T08:08:08.997Z,8.00
2022-10-30T08:10:36.974Z,7.70
2022-10-30T08:13:03.803Z,7.43
2022-10-30T08:15:31.559Z,7.53
2022-10-30T08:17:58.831Z,6.95
2022-10-30T08:20:26.565Z,7.43
2022-10-30T08:22:55.838Z,7.38
2022-10-30T08:25:29.972Z,8.02
2022-10-30T08:28:03.470Z,7.22
2022-10-30T08:30:37.731Z,8.30
2022-10-30T08:33:07.815Z,7.78
2022-10-30T08:35:56.916Z,6.93
2022-10-30T08:38:23.974Z,7.35
2022-10-30T08:41:05.844Z,6.47
2022-10-30T08:43:38.800Z,7.18
2022-10-30T08:46:06.133Z,7.32
2022-10-30T08:48:32.751Z,7.63
2022-10-30T08:51:01.512Z,6.85
2022-10-30T08:53:34.346Z,6.78
2022-10-30T08:56:05.647Z,7.32
2022-10-30T08:58:44.873Z,6.63
2022-10-30T09:04:01.374Z,6.20
2022-10-30T09:06:47.900Z,6.60
2022-10-30T09:09:23.991Z,7.10
2022-10-30T09:11:53.879Z,6.55
2022-10-30T09:14:21.031Z,6.30
2022-10-30T09:16:47.698Z,6.25
2022-10-30T09:19:18.890Z,5.43
2022-10-30T09:24:14.515Z,6.05
2022-10-30T09:27:04.145Z,6.20
2022-10-30T09:29:37.304Z,5.93
2022-10-30T09:32:20.487Z,6.20
2022-10-30T09:34:59.622Z,6.88
2022-10-30T09:37:34.574Z,5.70
2022-10-30T09:40:07.812Z,6.35
2022-10-30T09:42:42.649Z,5.15
2022-10-30T09:45:30.573Z,5.95
2022-10-30T09:48:08.363Z,5.70
2022-10-30T09:51:01.734Z,5.28
2022-10-30T09:53:51.170Z,6.53
2022-10-30T09:56:39.795Z,6.25
2022-10-30T09:59:25.790Z,5.50
2022-10-30T10:02:13.074Z,6.22
2022-10-30T10:04:48.555Z,5.57
2022-10-30T10:07:37.562Z,5.80
2022-10-30T10:10:41.049Z,5.40
2022-10-30T10:13:30.839Z,5.60
2022-10-30T10:16:16.375Z,5.18
2022-10-30T10:18:57.968Z,5.18
2022-10-30T10:21:27.228Z,6.13
2022-10-30T10:26:44.226Z,6.03
2022-10-30T10:29:33.458Z,14.10
2022-10-30T10:32:10.311Z,7.55
2022-10-30T10:34:53.613Z,6.05
2022-10-30T10:37:38.923Z,6.70
2022-10-30T10:40:27.603Z,6.38
2022-10-30T10:43:35.554Z,6.07
2022-10-30T10:46:39.374Z,5.85
2022-10-30T10:49:19.438Z,5.97
2022-10-30T10:51:52.071Z,5.20
2022-10-30T10:54:26.164Z,5.45
2022-10-30T10:56:53.385Z,18.08
2022-10-30T10:59:43.761Z,8.00
2022-10-30T11:02:31.084Z,5.57
2022-10-30T11:05:08.426Z,5.72
2022-10-30T11:07:45.552Z,4.97
2022-10-30T11:10:15.267Z,5.85
2022-10-30T11:12:42.372Z,5.43
2022-10-30T11:15:27.559Z,5.40
2022-10-30T11:20:56.293Z,5.38
2022-10-30T11:23:40.966Z,5.50
2022-10-30T11:26:22.962Z,5.80
2022-10-30T11:28:53.165Z,5.10
2022-10-30T11:31:24.747Z,5.10
2022-10-30T11:33:51.951Z,5.95
2022-10-30T11:36:23.347Z,5.72
2022-10-30T11:38:51.126Z,6.22
2022-10-30T11:41:20.121Z,5.40
2022-10-30T11:43:48.989Z,6.13
2022-10-30T11:46:22.842Z,4.82
2022-10-30T11:48:54.864Z,5.28
2022-10-30T11:51:35.935Z,5.32
2022-10-30T11:54:03.614Z,6.22
2022-10-30T11:56:32.370Z,5.20
2022-10-30T11:59:02.579Z,5.43
2022-10-30T12:01:37.378Z,5.07
2022-10-30T12:04:25.397Z,5.65
2022-10-30T12:07:22.882Z,5.32
2022-10-30T12:09:50.451Z,5.28
2022-10-30T12:12:42.641Z,6.32
2022-10-30T12:15:24.355Z,5.35
2022-10-30T12:18:03.180Z,5.20
2022-10-30T12:20:30.687Z,5.95
2022-10-30T12:22:58.148Z,4.93
2022-10-30T12:25:31.940Z,4.97
2022-10-30T12:28:06.417Z,4.70
2022-10-30T12:30:40.679Z,6.05
2022-10-30T12:33:18.128Z,5.65
2022-10-30T12:36:00.366Z,5.40
2022-10-30T12:38:37.124Z,4.72
2022-10-30T12:41:17.676Z,5.72
2022-10-30T12:43:56.571Z,5.53
2022-10-30T12:46:42.330Z,5.15
2022-10-30T12:49:22.869Z,4.95
2022-10-30T12:51:55.683Z,4.57
2022-10-30T12:54:34.154Z,5.38
2022-10-30T12:57:09.569Z,5.10
2022-10-30T12:59:50.498Z,4.72
2022-10-30T13:02:28.983Z,5.30
2022-10-30T13:05:01.869Z,5.90
2022-10-30T13:07:41.558Z,4.93
2022-10-30T13:10:33.635Z,4.50
2022-10-30T13:13:21.194Z,4.97
2022-10-30T13:15:54.819Z,4.70
2022-10-30T13:18:23.904Z,5.32
2022-10-30T13:21:12.790Z,4.75
2022-10-30T13:23:46.102Z,5.55
2022-10-30T13:26:35.754Z,5.78
2022-10-30T13:29:39.075Z,4.85
2022-10-30T13:32:29.414Z,5.63
2022-10-30T13:35:17.054Z,5.55
2022-10-30T13:37:51.649Z,4.82
2022-10-30T13:40:27.814Z,4.30
2022-10-30T13:43:05.110Z,5.38
2022-10-30T13:45:50.026Z,5.22
2022-10-30T13:48:46.339Z,4.35
2022-10-30T13:51:16.486Z,5.63
2022-10-30T13:53:48.655Z,4.28
2022-10-30T13:56:19.197Z,4.88
2022-10-30T13:59:02.957Z,5.10
2022-10-30T14:01:38.895Z,4.72
2022-10-30T14:04:35.500Z,5.63
2022-10-30T14:07:27.733Z,5.15
2022-10-30T14:10:16.295Z,4.90
2022-10-30T14:12:54.972Z,6.25
2022-10-30T14:15:31.620Z,11.27
2022-10-30T14:18:13.328Z,7.25
2022-10-30T14:20:48.845Z,14.25
2022-10-30T14:23:37.070Z,19.52
2022-10-30T14:26:07.162Z,12.50
2022-10-30T14:28:36.103Z,9.25
2022-10-30T14:31:09.281Z,8.93
2022-10-30T14:33:50.612Z,10.15
2022-10-30T14:36:24.022Z,11.52
2022-10-30T14:38:55.272Z,9.20
2022-10-30T14:41:40.866Z,9.43
2022-10-30T14:44:10.175Z,8.43
2022-10-30T14:47:01.755Z,7.18
2022-10-30T14:49:56.720Z,7.13
2022-10-30T14:52:30.152Z,7.53
2022-10-30T14:55:26.288Z,6.80
2022-10-30T14:58:14.465Z,6.75
2022-10-30T15:00:45.211Z,6.10
2022-10-30T15:03:36.009Z,6.15
2022-10-30T15:06:37.897Z,6.90
2022-10-30T15:09:25.895Z,6.00
2022-10-30T15:12:24.216Z,6.40
2022-10-30T15:15:01.389Z,6.28
2022-10-30T15:17:38.247Z,6.10
2022-10-30T15:20:09.286Z,7.25
2022-10-30T15:22:36.347Z,6.00
2022-10-30T15:25:04.062Z,6.35
2022-10-30T15:27:32.953Z,6.40
2022-10-30T15:30:02.600Z,6.43
2022-10-30T15:32:29.181Z,6.95
2022-10-30T15:35:00.445Z,6.55
2022-10-30T15:37:27.817Z,6.60
2022-10-30T15:40:18.830Z,6.93
2022-10-30T15:42:47.295Z,6.57
2022-10-30T15:45:23.807Z,7.05
2022-10-30T15:48:20.874Z,6.95
2022-10-30T15:50:59.217Z,7.15
2022-10-30T15:53:36.330Z,7.65
2022-10-30T15:56:04.886Z,7.82
2022-10-30T15:58:32.629Z,8.63
2022-10-30T16:01:02.208Z,8.38
2022-10-30T16:03:29.591Z,8.63
2022-10-30T16:06:17.216Z,8.65
2022-10-30T16:08:46.328Z,8.60
2022-10-30T16:11:14.655Z,7.75
2022-10-30T16:13:42.471Z,6.43
2022-10-30T16:16:36.155Z,6.82
2022-10-30T16:19:04.966Z,7.72
2022-10-30T16:21:32.937Z,6.68
2022-10-30T16:24:04.304Z,6.80
2022-10-30T16:26:36.615Z,7.30
2022-10-30T16:29:18.336Z,6.95
2022-10-30T16:31:50.233Z,7.32
2022-10-30T16:34:25.270Z,8.57
2022-10-30T16:36:53.264Z,8.50
2022-10-30T16:39:21.288Z,8.35
2022-10-30T16:41:49.310Z,8.55
2022-10-30T16:44:27.043Z,7.47
2022-10-30T16:47:10.351Z,7.30
2022-10-30T16:49:37.849Z,7.53
2022-10-30T16:52:07.017Z,6.57
2022-10-30T16:54:38.862Z,7.25
2022-10-30T16:57:16.132Z,7.13
2022-10-30T16:59:51.724Z,7.53
2022-10-30T17:02:32.433Z,7.75
2022-10-30T17:05:12.149Z,7.03
2022-10-30T17:07:39.568Z,7.80
2022-10-30T17:10:45.830Z,7.60
2022-10-30T17:13:33.928Z,8.48
2022-10-30T17:16:25.146Z,8.88
2022-10-30T17:18:59.073Z,9.95
2022-10-30T17:21:38.015Z,10.30
2022-10-30T17:24:04.972Z,11.47
2022-10-30T17:26:39.347Z,11.82
2022-10-30T17:29:05.937Z,11.15
2022-10-30T17:31:39.155Z,12.68
2022-10-30T17:34:13.491Z,11.55
2022-10-30T17:36:41.621Z,13.45
2022-10-30T17:39:08.818Z,15.50
2022-10-30T17:41:36.228Z,17.83
2022-10-30T17:44:03.371Z,17.55
2022-10-30T17:46:30.558Z,20.70
2022-10-30T17:49:00.673Z,20.05
2022-10-30T17:51:29.148Z,20.92
2022-10-30T17:53:56.347Z,21.38
2022-10-30T17:56:27.760Z,20.85
2022-10-30T17:58:55.197Z,20.58
2022-10-30T18:01:25.481Z,18.00
2022-10-30T18:03:57.844Z,15.95
2022-10-30T18:06:28.930Z,15.07
2022-10-30T18:08:56.140Z,14.90
2022-10-30T18:11:24.236Z,15.18
2022-10-30T18:13:52.435Z,17.23
2022-10-30T18:16:19.808Z,13.70
2022-10-30T18:18:46.861Z,12.95
2022-10-30T18:21:15.767Z,14.73
2022-10-30T18:23:58.489Z,12.95
2022-10-30T18:26:26.919Z,12.18
2022-10-30T18:28:55.112Z,11.40
2022-10-30T18:31:23.896Z,11.05
2022-10-30T18:33:51.037Z,10.13
2022-10-30T18:36:22.969Z,9.38
2022-10-30T18:38:52.325Z,8.27
2022-10-30T18:41:31.478Z,8.23
2022-10-30T18:43:58.798Z,8.23
2022-10-30T18:46:25.536Z,8.65
2022-10-30T18:48:52.743Z,8.35
2022-10-30T18:51:22.447Z,8.25
2022-10-30T18:53:52.928Z,7.95
2022-10-30T18:56:24.037Z,9.77
2022-10-30T18:58:55.016Z,10.23
2022-10-30T19:01:25.885Z,10.55
2022-10-30T19:03:53.337Z,9.98
2022-10-30T19:06:23.237Z,12.25
2022-10-30T19:08:50.919Z,11.07
2022-10-30T19:11:24.304Z,10.65
2022-10-30T19:13:53.655Z,9.68
2022-10-30T19:16:21.486Z,10.13
2022-10-30T19:18:49.013Z,10.30
2022-10-30T19:21:18.129Z,11.48
2022-10-30T19:23:45.389Z,10.60
2022-10-30T19:26:14.444Z,11.27
2022-10-30T19:28:42.333Z,11.40
2022-10-30T19:31:14.533Z,10.88
2022-10-30T19:33:41.993Z,10.70
2022-10-30T19:36:28.209Z,11.02
2022-10-30T19:38:55.473Z,10.82
2022-10-30T19:41:22.656Z,10.82
2022-10-30T19:43:49.916Z,11.73
2022-10-30T19:46:16.430Z,10.30
2022-10-30T19:49:00.208Z,10.88
2022-10-30T19:51:28.388Z,9.82
2022-10-30T19:53:55.805Z,9.65
2022-10-30T19:56:22.699Z,10.55
2022-10-30T19:58:50.306Z,9.55
2022-10-30T20:01:18.802Z,10.27
2022-10-30T20:03:46.171Z,10.38
2022-10-30T20:06:13.986Z,10.10
2022-10-30T20:08:41.518Z,9.80
2022-10-30T20:11:09.701Z,10.77
2022-10-30T20:13:37.544Z,10.43
2022-10-30T20:16:05.664Z,11.30
2022-10-30T20:18:35.240Z,11.15
2022-10-30T20:21:05.166Z,10.95
2022-10-30T20:23:32.365Z,10.60
2022-10-30T20:26:05.785Z,11.63
2022-10-30T20:28:32.965Z,10.25
2022-10-30T20:30:59.582Z,10.50
2022-10-30T20:33:27.280Z,10.48
2022-10-30T20:35:55.058Z,10.68
2022-10-30T20:38:29.467Z,10.70
2022-10-30T20:40:57.246Z,11.15
2022-10-30T20:43:29.515Z,9.73
2022-10-30T20:45:58.529Z,10.73
2022-10-30T20:48:26.751Z,9.82
2022-10-30T20:50:54.299Z,10.43
2022-10-30T20:53:21.511Z,9.95
2022-10-30T20:55:48.062Z,10.32
2022-10-30T20:58:15.563Z,9.85
2022-10-30T21:00:42.331Z,10.05
2022-10-30T21:03:14.559Z,9.82
2022-10-30T21:05:44.326Z,9.15
2022-10-30T21:08:13.700Z,10.38
2022-10-30T21:10:40.587Z,11.00
2022-10-30T21:13:09.477Z,9.30
2022-10-30T21:15:41.745Z,11.30
2022-10-30T21:18:09.694Z,10.60
2022-10-30T21:20:37.808Z,10.90
2022-10-30T21:23:05.092Z,10.02
2022-10-30T21:25:32.768Z,10.65
2022-10-30T21:27:59.833Z,10.18
